createdAt,value
2018-11-03T00:01:09.420Z,71.40
2018-11-03T00:03:37.743Z,72.07
2018-11-03T00:06:06.097Z,72.22
2018-11-03T00:08:34.431Z,72.95
2018-11-03T00:11:02.941Z,72.51
2018-11-03T00:13:31.315Z,72.45
2018-11-03T00:15:59.712Z,71.51
2018-11-03T00:18:28.116Z,70.73
2018-11-03T00:20:56.472Z,70.70
2018-11-03T00:23:24.991Z,72.57
2018-11-03T00:25:53.334Z,73.75
2018-11-03T00:28:21.715Z,72.68
2018-11-03T00:30:50.024Z,74.17
2018-11-03T00:33:18.340Z,73.24
2018-11-03T00:35:46.666Z,73.54
2018-11-03T00:38:15.027Z,72.46
2018-11-03T00:40:43.472Z,73.03
2018-11-03T00:43:11.929Z,72.25
2018-11-03T00:45:40.244Z,71.93
2018-11-03T00:48:08.637Z,71.02
2018-11-03T00:50:37.056Z,70.17
2018-11-03T00:53:05.795Z,71.32
2018-11-03T00:55:34.280Z,71.25
2018-11-03T00:58:03.504Z,70.83
2018-11-03T01:00:31.983Z,70.48
2018-11-03T01:03:00.292Z,70.88
2018-11-03T01:05:28.634Z,70.84
2018-11-03T01:07:57.071Z,70.85
2018-11-03T01:10:25.387Z,70.22
2018-11-03T01:12:53.863Z,72.16
2018-11-03T01:15:22.232Z,71.88
2018-11-03T01:17:50.644Z,72.02
2018-11-03T01:20:19.002Z,71.17
2018-11-03T01:22:47.375Z,70.86
2018-11-03T01:25:15.763Z,72.79
2018-11-03T01:27:44.137Z,71.18
2018-11-03T01:30:14.343Z,72.30
2018-11-03T01:32:42.830Z,71.77
2018-11-03T01:35:11.338Z,72.14
2018-11-03T01:37:40.325Z,71.71
2018-11-03T01:40:09.925Z,70.59
2018-11-03T01:42:38.595Z,69.63
2018-11-03T01:45:07.108Z,71.69
2018-11-03T01:47:35.891Z,72.08
2018-11-03T01:50:06.292Z,73.07
2018-11-03T01:52:35.313Z,72.20
2018-11-03T01:55:03.880Z,71.74
2018-11-03T01:57:32.352Z,70.70
2018-11-03T02:00:00.721Z,72.08
2018-11-03T02:02:29.019Z,71.60
2018-11-03T02:04:57.320Z,71.08
2018-11-03T02:07:25.719Z,70.51
2018-11-03T02:09:54.160Z,70.71
2018-11-03T02:12:22.480Z,71.70
2018-11-03T02:14:50.874Z,72.35
2018-11-03T02:17:19.245Z,71.29
2018-11-03T02:19:47.557Z,70.89
2018-11-03T02:22:15.952Z,72.69
2018-11-03T02:24:44.330Z,72.77
2018-11-03T02:27:12.695Z,72.91
2018-11-03T02:29:41.018Z,71.52
2018-11-03T02:32:09.391Z,70.79
2018-11-03T02:34:37.721Z,71.22
2018-11-03T02:37:06.068Z,71.98
2018-11-03T02:39:34.438Z,71.93
2018-11-03T02:42:02.773Z,72.17
2018-11-03T02:44:31.172Z,72.50
2018-11-03T02:46:59.529Z,72.75
2018-11-03T02:49:27.912Z,75.06
2018-11-03T02:51:56.252Z,73.20
2018-11-03T02:54:24.587Z,74.12
2018-11-03T02:56:53.030Z,72.90
2018-11-03T02:59:21.440Z,73.45
2018-11-03T03:01:49.835Z,73.08
2018-11-03T03:04:18.251Z,73.88
2018-11-03T03:06:46.579Z,73.03
2018-11-03T03:09:15.116Z,72.84
2018-11-03T03:11:43.448Z,71.65
2018-11-03T03:14:11.824Z,75.18
2018-11-03T03:16:40.262Z,74.45
2018-11-03T03:19:08.655Z,73.66
2018-11-03T03:21:37.106Z,74.20
2018-11-03T03:24:05.444Z,74.52
2018-11-03T03:26:33.803Z,73.65
2018-11-03T03:29:02.230Z,74.99
2018-11-03T03:31:30.541Z,76.75
2018-11-03T03:33:58.889Z,74.09
2018-11-03T03:36:27.163Z,74.54
2018-11-03T03:38:55.512Z,76.04
2018-11-03T03:41:24.051Z,74.42
2018-11-03T03:43:52.320Z,74.97
2018-11-03T03:46:20.707Z,76.36
2018-11-03T03:48:49.133Z,74.20
2018-11-03T03:51:17.446Z,73.75
2018-11-03T03:53:45.921Z,73.61
2018-11-03T03:56:14.298Z,73.04
2018-11-03T03:58:42.621Z,73.93
2018-11-03T04:01:10.992Z,74.32
2018-11-03T04:03:39.344Z,74.24
2018-11-03T04:06:07.723Z,74.45
2018-11-03T04:08:36.083Z,73.79
2018-11-03T04:11:04.765Z,75.04
2018-11-03T04:13:33.164Z,75.90
2018-11-03T04:16:01.502Z,74.67
2018-11-03T04:18:29.796Z,74.98
2018-11-03T04:20:58.303Z,76.06
2018-11-03T04:23:26.664Z,77.10
2018-11-03T04:25:55.052Z,76.80
2018-11-03T04:28:23.398Z,78.06
2018-11-03T04:30:51.705Z,75.49
2018-11-03T04:33:20.042Z,76.38
2018-11-03T04:35:48.436Z,75.67
2018-11-03T04:38:16.706Z,75.56
2018-11-03T04:40:45.068Z,76.16
2018-11-03T04:43:13.412Z,75.50
2018-11-03T04:45:41.802Z,75.70
2018-11-03T04:48:10.087Z,76.24
2018-11-03T04:50:38.468Z,75.30
2018-11-03T04:53:06.893Z,76.37
2018-11-03T04:55:35.227Z,76.37
2018-11-03T04:58:03.496Z,76.92
2018-11-03T05:00:31.907Z,76.45
2018-11-03T05:03:00.244Z,77.08
2018-11-03T05:05:28.564Z,76.41
2018-11-03T05:07:56.945Z,76.32
2018-11-03T05:10:25.300Z,76.26
2018-11-03T05:12:53.631Z,76.94
2018-11-03T05:15:21.960Z,76.98
2018-11-03T05:17:50.327Z,76.49
2018-11-03T05:20:18.792Z,76.07
2018-11-03T05:22:47.279Z,76.13
2018-11-03T05:25:15.716Z,77.80
2018-11-03T05:27:44.188Z,77.48
2018-11-03T05:30:12.562Z,77.55
2018-11-03T05:32:40.930Z,77.55
2018-11-03T05:35:09.221Z,77.36
2018-11-03T05:37:38.094Z,77.02
2018-11-03T05:40:06.653Z,77.32
2018-11-03T05:42:35.052Z,76.35
2018-11-03T05:45:03.539Z,77.56
2018-11-03T05:47:31.976Z,77.39
2018-11-03T05:50:00.415Z,76.82
2018-11-03T05:52:28.861Z,77.50
2018-11-03T05:54:57.192Z,78.14
2018-11-03T05:57:25.530Z,78.68
2018-11-03T05:59:53.865Z,78.70
2018-11-03T06:02:22.240Z,77.85
2018-11-03T06:04:50.567Z,79.00
2018-11-03T06:07:19.009Z,78.09
2018-11-03T06:09:47.316Z,79.98
2018-11-03T06:12:15.596Z,81.13
2018-11-03T06:14:43.989Z,80.68
2018-11-03T06:17:12.381Z,78.93
2018-11-03T06:19:40.759Z,79.07
2018-11-03T06:22:09.137Z,79.18
2018-11-03T06:24:37.543Z,81.24
2018-11-03T06:27:06.008Z,81.53
2018-11-03T06:29:34.421Z,81.32
2018-11-03T06:32:02.910Z,80.23
2018-11-03T06:34:31.285Z,81.63
2018-11-03T06:36:59.733Z,80.00
2018-11-03T06:39:28.083Z,79.85
2018-11-03T06:41:56.448Z,80.08
2018-11-03T06:44:24.821Z,80.28
2018-11-03T06:46:53.146Z,80.61
2018-11-03T06:49:22.707Z,81.44
2018-11-03T06:51:52.359Z,79.66
2018-11-03T06:54:21.086Z,80.77
2018-11-03T06:56:49.378Z,80.17
2018-11-03T06:59:18.532Z,79.09
2018-11-03T07:01:47.079Z,79.46
2018-11-03T07:04:15.516Z,80.24
2018-11-03T07:06:43.839Z,80.10
2018-11-03T07:09:13.136Z,81.50
2018-11-03T07:11:41.524Z,80.85
2018-11-03T07:14:10.369Z,80.31
2018-11-03T07:16:38.727Z,80.64
2018-11-03T07:19:07.218Z,81.65
2018-11-03T07:21:35.628Z,80.86
2018-11-03T07:24:04.052Z,81.09
2018-11-03T07:26:32.372Z,80.50
2018-11-03T07:29:00.810Z,80.52
2018-11-03T07:31:29.182Z,80.72
2018-11-03T07:33:57.784Z,81.06
2018-11-03T07:36:26.085Z,80.13
2018-11-03T07:38:54.536Z,80.65
2018-11-03T07:41:22.811Z,79.82
2018-11-03T07:43:51.083Z,81.27
2018-11-03T07:46:19.422Z,79.92
2018-11-03T07:48:48.138Z,78.88
2018-11-03T07:51:16.361Z,78.83
2018-11-03T07:53:44.655Z,78.08
2018-11-03T07:56:12.987Z,77.68
2018-11-03T07:58:41.355Z,78.28
2018-11-03T08:01:09.812Z,77.01
2018-11-03T08:03:38.187Z,77.58
2018-11-03T08:06:06.551Z,77.21
2018-11-03T08:08:34.882Z,76.80
2018-11-03T08:11:03.388Z,75.03
2018-11-03T08:13:31.733Z,74.73
2018-11-03T08:16:00.341Z,76.56
2018-11-03T08:18:28.703Z,76.32
2018-11-03T08:20:57.107Z,75.42
2018-11-03T08:23:25.437Z,75.97
2018-11-03T08:25:53.845Z,73.91
2018-11-03T08:28:22.132Z,75.42
2018-11-03T08:30:50.499Z,73.94
2018-11-03T08:33:18.882Z,74.35
2018-11-03T08:35:47.264Z,72.99
2018-11-03T08:38:15.711Z,74.08
2018-11-03T08:40:43.996Z,73.45
2018-11-03T08:43:12.332Z,72.43
2018-11-03T08:45:40.743Z,73.06
2018-11-03T08:48:09.200Z,72.56
2018-11-03T08:50:37.527Z,71.99
2018-11-03T08:53:05.873Z,71.73
2018-11-03T08:55:34.267Z,70.86
2018-11-03T08:58:02.583Z,71.14
2018-11-03T09:00:31.019Z,70.40
2018-11-03T09:02:59.406Z,70.23
2018-11-03T09:05:27.757Z,70.35
2018-11-03T09:07:56.147Z,68.83
2018-11-03T09:10:24.496Z,69.43
2018-11-03T09:12:53.030Z,69.32
2018-11-03T09:15:21.494Z,68.88
2018-11-03T09:17:49.703Z,69.26
2018-11-03T09:20:18.058Z,68.64
2018-11-03T09:22:46.496Z,67.08
2018-11-03T09:25:15.680Z,67.29
2018-11-03T09:27:44.410Z,66.09
2018-11-03T09:30:14.937Z,65.59
2018-11-03T09:32:43.339Z,65.85
2018-11-03T09:35:12.824Z,65.71
2018-11-03T09:37:41.224Z,65.40
2018-11-03T09:40:11.871Z,64.82
2018-11-03T09:42:40.360Z,64.59
2018-11-03T09:45:09.691Z,64.25
2018-11-03T09:47:37.932Z,64.97
2018-11-03T09:50:07.176Z,64.71
2018-11-03T09:52:35.519Z,64.84
2018-11-03T09:55:03.904Z,64.94
2018-11-03T09:57:32.271Z,63.77
2018-11-03T10:00:00.623Z,62.58
2018-11-03T10:02:29.002Z,63.40
2018-11-03T10:04:57.419Z,63.25
2018-11-03T10:07:25.719Z,64.36
2018-11-03T10:09:54.147Z,62.72
2018-11-03T10:12:22.535Z,61.66
2018-11-03T10:14:50.925Z,62.08
2018-11-03T10:17:19.463Z,63.02
2018-11-03T10:19:47.792Z,63.38
2018-11-03T10:22:16.158Z,63.09
2018-11-03T10:24:44.599Z,63.76
2018-11-03T10:27:12.931Z,63.80
2018-11-03T10:29:41.269Z,63.56
2018-11-03T10:32:09.613Z,64.37
2018-11-03T10:34:38.020Z,64.10
2018-11-03T10:37:06.543Z,63.78
2018-11-03T10:39:34.976Z,64.22
2018-11-03T10:42:03.393Z,64.40
2018-11-03T10:44:31.827Z,64.31
2018-11-03T10:47:00.156Z,64.84
2018-11-03T10:49:28.617Z,64.77
2018-11-03T10:51:56.967Z,64.95
2018-11-03T10:54:25.503Z,65.09
2018-11-03T10:56:53.907Z,63.68
2018-11-03T10:59:22.483Z,63.95
2018-11-03T11:01:55.931Z,63.48
2018-11-03T11:04:29.588Z,63.77
2018-11-03T11:07:02.970Z,63.91
2018-11-03T11:09:35.420Z,63.47
2018-11-03T11:12:10.147Z,63.07
2018-11-03T11:14:38.585Z,63.08
2018-11-03T11:17:07.031Z,61.79
2018-11-03T11:19:35.341Z,60.46
2018-11-03T11:22:03.697Z,59.13
2018-11-03T11:24:32.190Z,59.72
2018-11-03T11:27:00.439Z,57.44
2018-11-03T11:29:28.796Z,58.07
2018-11-03T11:31:57.260Z,54.64
2018-11-03T11:34:25.645Z,53.12
2018-11-03T11:36:53.966Z,52.26
2018-11-03T11:39:22.297Z,52.03
2018-11-03T11:41:50.671Z,49.41
2018-11-03T11:44:19.088Z,50.92
2018-11-03T11:46:47.457Z,46.99
2018-11-03T11:49:15.860Z,46.55
2018-11-03T11:51:44.232Z,46.73
2018-11-03T11:54:12.752Z,44.85
2018-11-03T11:56:41.116Z,45.98
2018-11-03T11:59:09.589Z,46.04
2018-11-03T12:01:38.114Z,44.21
2018-11-03T12:04:06.676Z,43.97
2018-11-03T12:06:35.026Z,43.67
2018-11-03T12:09:03.515Z,43.09
2018-11-03T12:11:31.975Z,42.15
2018-11-03T12:14:00.311Z,43.83
2018-11-03T12:16:28.697Z,41.66
2018-11-03T12:18:57.010Z,41.05
2018-11-03T12:21:25.356Z,40.98
2018-11-03T12:23:53.710Z,40.85
2018-11-03T12:26:22.067Z,39.97
2018-11-03T12:28:50.447Z,39.51
2018-11-03T12:31:18.789Z,39.06
2018-11-03T12:33:47.200Z,38.54
2018-11-03T12:36:15.655Z,39.02
2018-11-03T12:38:44.387Z,38.89
2018-11-03T12:41:12.704Z,39.53
2018-11-03T12:43:41.040Z,38.10
2018-11-03T12:46:09.497Z,38.89
2018-11-03T12:48:37.975Z,37.11
2018-11-03T12:51:06.398Z,37.83
2018-11-03T12:53:34.714Z,39.94
2018-11-03T12:56:03.020Z,39.09
2018-11-03T12:58:31.344Z,37.93
2018-11-03T13:00:59.688Z,38.34
2018-11-03T13:03:27.997Z,36.36
2018-11-03T13:05:56.383Z,35.66
2018-11-03T13:08:24.827Z,36.04
2018-11-03T13:10:53.143Z,36.52
2018-11-03T13:13:21.587Z,37.78
2018-11-03T13:15:49.979Z,35.82
2018-11-03T13:18:18.357Z,35.98
2018-11-03T13:20:46.798Z,34.59
2018-11-03T13:23:15.178Z,35.07
2018-11-03T13:25:43.486Z,36.36
2018-11-03T13:28:11.866Z,36.61
2018-11-03T13:30:40.262Z,36.00
2018-11-03T13:33:08.607Z,36.86
2018-11-03T13:35:36.993Z,40.28
2018-11-03T13:38:05.513Z,37.27
2018-11-03T13:40:33.910Z,37.56
2018-11-03T13:43:02.346Z,34.57
2018-11-03T13:45:30.781Z,36.69
2018-11-03T13:47:59.255Z,35.21
2018-11-03T13:50:27.590Z,37.32
2018-11-03T13:52:56.016Z,35.44
2018-11-03T13:55:24.360Z,35.90
2018-11-03T13:57:52.740Z,37.45
2018-11-03T14:00:21.097Z,35.25
2018-11-03T14:02:50.252Z,37.85
2018-11-03T14:05:18.617Z,37.81
2018-11-03T14:07:46.971Z,38.60
2018-11-03T14:10:16.427Z,40.63
2018-11-03T14:12:45.655Z,40.49
2018-11-03T14:15:15.485Z,40.33
2018-11-03T14:17:43.853Z,39.91
2018-11-03T14:20:13.297Z,38.14
2018-11-03T14:22:42.130Z,41.07
2018-11-03T14:25:12.163Z,42.54
2018-11-03T14:27:41.136Z,46.38
2018-11-03T14:30:10.263Z,49.00
2018-11-03T14:32:38.681Z,46.86
2018-11-03T14:35:07.948Z,46.28
2018-11-03T14:37:44.929Z,49.00
2018-11-03T14:40:24.506Z,48.34
2018-11-03T14:42:52.999Z,49.29
2018-11-03T14:45:21.511Z,49.84
2018-11-03T14:47:49.870Z,50.13
2018-11-03T14:50:18.261Z,50.77
2018-11-03T14:52:46.663Z,50.30
2018-11-03T14:55:15.015Z,51.56
2018-11-03T14:57:43.323Z,50.56
2018-11-03T15:00:15.392Z,53.03
2018-11-03T15:02:43.872Z,52.31
2018-11-03T15:05:12.820Z,52.06
2018-11-03T15:07:41.342Z,52.92
2018-11-03T15:10:11.611Z,52.45
2018-11-03T15:12:40.689Z,53.79
2018-11-03T15:15:11.071Z,54.57
2018-11-03T15:17:39.411Z,54.14
2018-11-03T15:20:08.519Z,53.30
2018-11-03T15:22:37.015Z,54.21
2018-11-03T15:25:06.223Z,55.24
2018-11-03T15:27:34.664Z,53.86
2018-11-03T15:30:02.960Z,53.73
2018-11-03T15:32:31.419Z,54.90
2018-11-03T15:35:00.157Z,54.88
2018-11-03T15:37:28.475Z,55.03
2018-11-03T15:39:56.773Z,55.49
2018-11-03T15:42:25.174Z,57.36
2018-11-03T15:44:53.598Z,55.82
2018-11-03T15:47:22.028Z,57.89
2018-11-03T15:49:50.588Z,57.14
2018-11-03T15:52:18.988Z,58.06
2018-11-03T15:54:47.718Z,58.85
2018-11-03T15:57:16.086Z,57.42
2018-11-03T15:59:44.477Z,57.97
2018-11-03T16:02:12.961Z,57.63
2018-11-03T16:04:41.436Z,57.80
2018-11-03T16:07:09.811Z,59.33
2018-11-03T16:09:38.205Z,57.84
2018-11-03T16:12:07.327Z,59.72
2018-11-03T16:14:35.675Z,58.03
2018-11-03T16:17:04.119Z,61.06
2018-11-03T16:19:32.649Z,61.06
2018-11-03T16:22:01.085Z,60.23
2018-11-03T16:24:29.561Z,60.14
2018-11-03T16:26:58.013Z,60.43
2018-11-03T16:29:27.799Z,60.86
2018-11-03T16:31:56.360Z,61.28
2018-11-03T16:34:24.846Z,63.63
2018-11-03T16:36:53.313Z,61.59
2018-11-03T16:39:21.716Z,62.21
2018-11-03T16:41:50.198Z,61.64
2018-11-03T16:44:18.597Z,61.75
2018-11-03T16:46:47.221Z,63.59
2018-11-03T16:49:18.248Z,64.37
2018-11-03T16:51:46.769Z,63.06
2018-11-03T16:54:15.295Z,62.91
2018-11-03T16:56:44.398Z,63.40
2018-11-03T16:59:12.781Z,64.56
2018-11-03T17:01:41.084Z,63.70
2018-11-03T17:04:09.631Z,63.99
2018-11-03T17:06:38.085Z,64.74
2018-11-03T17:09:07.504Z,65.74
2018-11-03T17:11:35.952Z,64.66
2018-11-03T17:14:04.548Z,66.14
2018-11-03T17:16:32.989Z,63.93
2018-11-03T17:19:01.488Z,63.73
2018-11-03T17:21:29.955Z,62.88
2018-11-03T17:23:58.330Z,65.20
2018-11-03T17:26:26.751Z,66.95
2018-11-03T17:28:55.525Z,66.55
2018-11-03T17:31:23.987Z,66.06
2018-11-03T17:33:52.469Z,65.73
2018-11-03T17:36:20.957Z,64.90
2018-11-03T17:38:49.387Z,65.96
2018-11-03T17:41:17.812Z,65.67
2018-11-03T17:43:46.298Z,66.91
2018-11-03T17:46:14.791Z,66.41
2018-11-03T17:48:43.204Z,66.78
2018-11-03T17:51:11.631Z,67.86
2018-11-03T17:53:40.040Z,65.83
2018-11-03T17:56:08.389Z,66.65
2018-11-03T17:58:36.784Z,65.64
2018-11-03T18:01:05.442Z,65.95
2018-11-03T18:03:33.747Z,65.50
2018-11-03T18:06:02.121Z,65.62
2018-11-03T18:08:30.555Z,65.88
2018-11-03T18:10:58.985Z,66.62
2018-11-03T18:13:27.474Z,65.28
2018-11-03T18:15:55.974Z,65.57
2018-11-03T18:18:24.535Z,66.23
2018-11-03T18:20:52.967Z,65.57
2018-11-03T18:23:21.392Z,65.07
2018-11-03T18:25:49.876Z,65.90
2018-11-03T18:28:18.391Z,66.00
2018-11-03T18:30:46.918Z,65.53
2018-11-03T18:33:15.208Z,65.37
2018-11-03T18:35:43.598Z,65.54
2018-11-03T18:38:11.970Z,66.16
2018-11-03T18:40:40.429Z,67.37
2018-11-03T18:43:08.760Z,66.58
2018-11-03T18:45:37.276Z,69.42
2018-11-03T18:48:06.005Z,67.74
2018-11-03T18:50:34.383Z,66.60
2018-11-03T18:53:03.601Z,66.31
2018-11-03T18:55:32.046Z,69.11
2018-11-03T18:58:00.500Z,69.52
2018-11-03T19:00:28.907Z,70.25
2018-11-03T19:02:57.345Z,68.82
2018-11-03T19:05:25.708Z,67.92
2018-11-03T19:07:54.104Z,67.58
2018-11-03T19:10:22.476Z,67.38
2018-11-03T19:12:50.911Z,66.33
2018-11-03T19:15:19.356Z,68.09
2018-11-03T19:17:47.812Z,67.49
2018-11-03T19:20:16.473Z,66.67
2018-11-03T19:22:44.895Z,67.87
2018-11-03T19:25:14.091Z,66.94
2018-11-03T19:27:42.543Z,67.74
2018-11-03T19:30:12.220Z,69.56
2018-11-03T19:32:42.211Z,68.73
2018-11-03T19:35:10.704Z,68.76
2018-11-03T19:37:39.743Z,69.89
2018-11-03T19:40:09.556Z,69.42
2018-11-03T19:42:38.344Z,68.53
2018-11-03T19:45:07.551Z,67.78
2018-11-03T19:47:36.009Z,68.11
2018-11-03T19:50:05.567Z,68.84
2018-11-03T19:52:34.119Z,68.95
2018-11-03T19:55:02.434Z,69.12
2018-11-03T19:57:30.864Z,69.56
2018-11-03T19:59:59.285Z,70.03
2018-11-03T20:02:27.636Z,70.52
2018-11-03T20:04:56.009Z,69.03
2018-11-03T20:07:24.409Z,69.04
2018-11-03T20:09:52.892Z,69.16
2018-11-03T20:12:21.291Z,69.43
2018-11-03T20:14:49.788Z,69.03
2018-11-03T20:17:18.120Z,69.83
2018-11-03T20:19:46.574Z,69.67
2018-11-03T20:22:14.918Z,70.41
2018-11-03T20:24:43.296Z,70.06
2018-11-03T20:27:11.692Z,70.07
2018-11-03T20:29:40.108Z,69.46
2018-11-03T20:32:08.728Z,70.35
2018-11-03T20:34:37.043Z,71.11
2018-11-03T20:37:05.987Z,70.48
2018-11-03T20:39:34.498Z,71.75
2018-11-03T20:42:02.913Z,71.02
2018-11-03T20:44:31.409Z,71.30
2018-11-03T20:46:59.900Z,70.84
2018-11-03T20:49:28.310Z,70.86
2018-11-03T20:51:56.642Z,70.14
2018-11-03T20:54:24.982Z,71.64
2018-11-03T20:56:53.385Z,71.40
2018-11-03T20:59:21.976Z,72.77
2018-11-03T21:01:50.366Z,72.84
2018-11-03T21:04:18.695Z,72.13
2018-11-03T21:06:47.153Z,73.00
2018-11-03T21:09:15.584Z,71.82
2018-11-03T21:11:44.089Z,71.96
2018-11-03T21:14:12.395Z,73.03
2018-11-03T21:16:40.882Z,73.00
2018-11-03T21:19:09.265Z,72.05
2018-11-03T21:21:38.528Z,71.50
2018-11-03T21:24:06.947Z,71.94
2018-11-03T21:26:35.202Z,72.23
2018-11-03T21:29:03.533Z,72.40
2018-11-03T21:31:31.886Z,72.47
2018-11-03T21:34:00.354Z,72.34
2018-11-03T21:36:28.689Z,73.09
2018-11-03T21:38:57.156Z,73.54
2018-11-03T21:41:25.667Z,73.39
2018-11-03T21:43:54.004Z,72.21
2018-11-03T21:46:22.435Z,72.98
2018-11-03T21:48:50.815Z,74.30
2018-11-03T21:51:19.206Z,73.35
2018-11-03T21:53:47.618Z,74.40
2018-11-03T21:56:16.171Z,75.30
2018-11-03T21:58:44.642Z,74.25
2018-11-03T22:01:13.033Z,74.74
2018-11-03T22:03:42.554Z,74.06
2018-11-03T22:06:10.900Z,73.98
2018-11-03T22:08:39.216Z,73.47
2018-11-03T22:11:07.580Z,72.94
2018-11-03T22:13:36.017Z,74.30
2018-11-03T22:16:04.504Z,73.51
2018-11-03T22:18:33.012Z,73.72
2018-11-03T22:21:01.544Z,74.55
2018-11-03T22:23:30.061Z,73.72
2018-11-03T22:25:58.469Z,73.82
2018-11-03T22:28:26.823Z,73.59
2018-11-03T22:30:55.348Z,74.39
2018-11-03T22:33:23.772Z,74.15
2018-11-03T22:35:52.140Z,75.68
2018-11-03T22:38:20.934Z,76.19
2018-11-03T22:44:18.955Z,73.86
2018-11-03T22:47:16.217Z,73.25
2018-11-03T22:50:05.455Z,72.36
2018-11-03T23:10:16.936Z,74.49
2018-11-03T23:23:11.374Z,74.54
2018-11-03T23:25:39.889Z,74.57
2018-11-03T23:28:08.368Z,75.45
2018-11-03T23:30:36.826Z,75.36
2018-11-03T23:33:05.301Z,75.04
2018-11-03T23:35:33.873Z,75.62
2018-11-03T23:38:02.321Z,75.97
2018-11-03T23:40:30.801Z,76.44
2018-11-03T23:42:59.163Z,76.29
2018-11-03T23:45:27.669Z,76.66
2018-11-03T23:47:56.288Z,77.65
2018-11-03T23:50:24.845Z,76.14
2018-11-03T23:52:53.180Z,77.09
2018-11-03T23:55:21.703Z,78.39
2018-11-03T23:57:50.083Z,77.41
